Aviation Digital Data Service (ADDS)

Output produced by METARs form (0611 UTC 25 June 2018)
found at http://www.aviationweather.gov/adds/metars/
 
FKKD 250500Z VRB02KT 8000 TS BKN013 FEW016CB 24/23 Q1012 NOSIG
TAF FKKD 250500Z 2506/2612 VRB05KT 8000 TS BKN013 FEW016CB 
     BECMG 2507/2509 NSW BKN016 FEW020CB 
     PROB30 2510/2513 3000 TSRA
       
FKKR 250300Z 16006KT 3000 TSRA BKN016 FEW020CB 21/21 Q1013
TAF FKKR 250500Z 2506/2518 21009KT 3000 TSRA BKN016 FEW020CB 
     BECMG 2507/2509 8000 NSW
       
FKYS 250500Z /////KT 7000 SCT006 19/19 Q1017 NOSIG
TAF FKYS 250500Z 2506/2606 VRB05KT 8000 BKN006 
     TEMPO 2506/2507 3000 BR 
     BECMG 2407/2409 BKN016 
     PROB30 2510/2513 4000 TSRA BKN013 FEW016CB 
     TEMPO 2515/2521 TS 
     BECMG 2521/2523 BKN006